sensor_id;sensor_type;location;lat;lon;timestamp;P1;durP1;ratioP1;P2;durP2;ratioP2
16870;SDS011;8552;48.120;-1.456;2023-08-31T00:02:12;4.32;;;1.90;;
16870;SDS011;8552;48.120;-1.456;2023-08-31T00:04:38;5.07;;;2.42;;
16870;SDS011;8552;48.120;-1.456;2023-08-31T00:07:04;4.50;;;2.13;;
16870;SDS011;8552;48.120;-1.456;2023-08-31T00:09:31;4.03;;;2.15;;
16870;SDS011;8552;48.120;-1.456;2023-08-31T00:11:57;4.03;;;2.08;;
16870;SDS011;8552;48.120;-1.456;2023-08-31T00:14:24;4.75;;;1.85;;
16870;SDS011;8552;48.120;-1.456;2023-08-31T00:16:51;4.15;;;1.77;;
16870;SDS011;8552;48.120;-1.456;2023-08-31T00:19:17;3.55;;;1.60;;
16870;SDS011;8552;48.120;-1.456;2023-08-31T00:21:43;3.67;;;1.85;;
16870;SDS011;8552;48.120;-1.456;2023-08-31T00:24:09;6.22;;;2.20;;
16870;SDS011;8552;48.120;-1.456;2023-08-31T00:26:35;4.68;;;2.00;;
16870;SDS011;8552;48.120;-1.456;2023-08-31T00:29:06;6.75;;;2.17;;
16870;SDS011;8552;48.120;-1.456;2023-08-31T00:31:32;4.97;;;2.38;;
16870;SDS011;8552;48.120;-1.456;2023-08-31T00:33:58;6.57;;;2.30;;
16870;SDS011;8552;48.120;-1.456;2023-08-31T00:36:28;5.63;;;2.40;;
16870;SDS011;8552;48.120;-1.456;2023-08-31T00:38:54;3.80;;;1.98;;
16870;SDS011;8552;48.120;-1.456;2023-08-31T00:41:19;6.35;;;1.92;;
16870;SDS011;8552;48.120;-1.456;2023-08-31T00:43:47;4.53;;;1.80;;
16870;SDS011;8552;48.120;-1.456;2023-08-31T00:46:12;5.45;;;2.13;;
16870;SDS011;8552;48.120;-1.456;2023-08-31T00:48:39;7.38;;;2.08;;
16870;SDS011;8552;48.120;-1.456;2023-08-31T00:51:06;6.53;;;2.13;;
16870;SDS011;8552;48.120;-1.456;2023-08-31T00:53:33;4.32;;;1.92;;
16870;SDS011;8552;48.120;-1.456;2023-08-31T00:56:00;5.13;;;2.00;;
16870;SDS011;8552;48.120;-1.456;2023-08-31T00:58:27;3.53;;;2.00;;
16870;SDS011;8552;48.120;-1.456;2023-08-31T01:03:31;5.88;;;2.30;;
16870;SDS011;8552;48.120;-1.456;2023-08-31T01:14:42;3.78;;;1.95;;
16870;SDS011;8552;48.120;-1.456;2023-08-31T01:17:12;7.30;;;2.40;;
16870;SDS011;8552;48.120;-1.456;2023-08-31T01:19:47;6.20;;;2.90;;
16870;SDS011;8552;48.120;-1.456;2023-08-31T01:22:21;3.40;;;1.88;;
16870;SDS011;8552;48.120;-1.456;2023-08-31T01:24:50;6.53;;;2.35;;
16870;SDS011;8552;48.120;-1.456;2023-08-31T01:27:17;4.90;;;2.45;;
16870;SDS011;8552;48.120;-1.456;2023-08-31T01:29:43;6.60;;;2.58;;
16870;SDS011;8552;48.120;-1.456;2023-08-31T01:32:09;4.22;;;2.47;;
16870;SDS011;8552;48.120;-1.456;2023-08-31T01:34:35;6.35;;;2.20;;
16870;SDS011;8552;48.120;-1.456;2023-08-31T01:37:03;5.03;;;2.45;;
16870;SDS011;8552;48.120;-1.456;2023-08-31T01:39:46;5.10;;;2.95;;
16870;SDS011;8552;48.120;-1.456;2023-08-31T01:42:19;6.35;;;2.45;;
16870;SDS011;8552;48.120;-1.456;2023-08-31T01:44:46;4.53;;;2.13;;
16870;SDS011;8552;48.120;-1.456;2023-08-31T01:47:14;7.63;;;2.67;;
16870;SDS011;8552;48.120;-1.456;2023-08-31T01:49:42;7.07;;;2.78;;
16870;SDS011;8552;48.120;-1.456;2023-08-31T01:52:08;7.95;;;2.90;;
16870;SDS011;8552;48.120;-1.456;2023-08-31T01:54:34;8.68;;;3.22;;
16870;SDS011;8552;48.120;-1.456;2023-08-31T01:57:02;11.00;;;3.47;;
16870;SDS011;8552;48.120;-1.456;2023-08-31T01:59:28;5.05;;;2.90;;
16870;SDS011;8552;48.120;-1.456;2023-08-31T02:01:54;10.70;;;3.55;;
16870;SDS011;8552;48.120;-1.456;2023-08-31T02:04:20;4.00;;;2.72;;
16870;SDS011;8552;48.120;-1.456;2023-08-31T02:06:45;6.60;;;3.28;;
16870;SDS011;8552;48.120;-1.456;2023-08-31T02:09:12;5.93;;;3.45;;
16870;SDS011;8552;48.120;-1.456;2023-08-31T02:11:38;7.22;;;2.78;;
16870;SDS011;8552;48.120;-1.456;2023-08-31T02:14:04;6.82;;;2.75;;
16870;SDS011;8552;48.120;-1.456;2023-08-31T02:16:30;5.38;;;2.70;;
16870;SDS011;8552;48.120;-1.456;2023-08-31T02:18:56;11.75;;;3.75;;
16870;SDS011;8552;48.120;-1.456;2023-08-31T02:21:22;19.15;;;4.07;;
16870;SDS011;8552;48.120;-1.456;2023-08-31T02:23:48;9.18;;;3.20;;
16870;SDS011;8552;48.120;-1.456;2023-08-31T02:26:14;14.55;;;3.70;;
16870;SDS011;8552;48.120;-1.456;2023-08-31T02:28:39;6.65;;;2.78;;
16870;SDS011;8552;48.120;-1.456;2023-08-31T02:31:05;7.55;;;3.33;;
16870;SDS011;8552;48.120;-1.456;2023-08-31T02:33:31;6.65;;;2.97;;
16870;SDS011;8552;48.120;-1.456;2023-08-31T02:35:56;7.32;;;3.00;;
16870;SDS011;8552;48.120;-1.456;2023-08-31T02:38:23;8.90;;;3.13;;
16870;SDS011;8552;48.120;-1.456;2023-08-31T02:40:49;4.75;;;2.90;;
16870;SDS011;8552;48.120;-1.456;2023-08-31T02:43:15;11.15;;;4.10;;
16870;SDS011;8552;48.120;-1.456;2023-08-31T02:45:40;10.13;;;3.35;;
16870;SDS011;8552;48.120;-1.456;2023-08-31T02:48:06;12.15;;;4.30;;
16870;SDS011;8552;48.120;-1.456;2023-08-31T02:50:34;7.10;;;3.22;;
16870;SDS011;8552;48.120;-1.456;2023-08-31T02:53:00;7.50;;;3.10;;
16870;SDS011;8552;48.120;-1.456;2023-08-31T02:55:26;13.63;;;4.18;;
16870;SDS011;8552;48.120;-1.456;2023-08-31T02:57:51;5.40;;;2.65;;
16870;SDS011;8552;48.120;-1.456;2023-08-31T03:00:18;11.93;;;3.60;;
16870;SDS011;8552;48.120;-1.456;2023-08-31T03:02:47;10.75;;;3.20;;
16870;SDS011;8552;48.120;-1.456;2023-08-31T03:05:13;8.30;;;2.95;;
16870;SDS011;8552;48.120;-1.456;2023-08-31T03:07:39;9.77;;;3.13;;
16870;SDS011;8552;48.120;-1.456;2023-08-31T03:10:04;9.18;;;3.25;;
16870;SDS011;8552;48.120;-1.456;2023-08-31T03:12:31;9.20;;;2.88;;
16870;SDS011;8552;48.120;-1.456;2023-08-31T03:14:56;9.95;;;3.25;;
16870;SDS011;8552;48.120;-1.456;2023-08-31T03:17:22;8.68;;;3.22;;
16870;SDS011;8552;48.120;-1.456;2023-08-31T03:19:48;12.65;;;3.72;;
16870;SDS011;8552;48.120;-1.456;2023-08-31T03:22:14;11.90;;;3.30;;
16870;SDS011;8552;48.120;-1.456;2023-08-31T03:24:40;7.32;;;3.17;;
16870;SDS011;8552;48.120;-1.456;2023-08-31T03:27:05;6.43;;;3.35;;
16870;SDS011;8552;48.120;-1.456;2023-08-31T03:29:31;7.38;;;3.85;;
16870;SDS011;8552;48.120;-1.456;2023-08-31T03:31:57;12.40;;;3.30;;
16870;SDS011;8552;48.120;-1.456;2023-08-31T03:34:28;11.57;;;3.28;;
16870;SDS011;8552;48.120;-1.456;2023-08-31T03:36:55;9.93;;;3.25;;
16870;SDS011;8552;48.120;-1.456;2023-08-31T03:39:21;8.68;;;2.78;;
16870;SDS011;8552;48.120;-1.456;2023-08-31T03:41:47;10.30;;;3.38;;
16870;SDS011;8552;48.120;-1.456;2023-08-31T03:44:12;7.18;;;2.85;;
16870;SDS011;8552;48.120;-1.456;2023-08-31T03:46:38;10.55;;;4.35;;
16870;SDS011;8552;48.120;-1.456;2023-08-31T03:49:04;9.57;;;2.97;;
16870;SDS011;8552;48.120;-1.456;2023-08-31T03:51:30;7.45;;;2.97;;
16870;SDS011;8552;48.120;-1.456;2023-08-31T03:53:55;6.47;;;2.38;;
16870;SDS011;8552;48.120;-1.456;2023-08-31T03:56:22;8.13;;;2.63;;
16870;SDS011;8552;48.120;-1.456;2023-08-31T03:58:47;11.90;;;3.75;;
16870;SDS011;8552;48.120;-1.456;2023-08-31T04:01:13;6.53;;;2.63;;
16870;SDS011;8552;48.120;-1.456;2023-08-31T04:03:42;8.00;;;2.67;;
16870;SDS011;8552;48.120;-1.456;2023-08-31T04:06:08;7.78;;;3.33;;
16870;SDS011;8552;48.120;-1.456;2023-08-31T04:08:34;7.88;;;2.75;;
16870;SDS011;8552;48.120;-1.456;2023-08-31T04:11:00;7.38;;;3.17;;
16870;SDS011;8552;48.120;-1.456;2023-08-31T04:13:25;8.50;;;3.53;;
16870;SDS011;8552;48.120;-1.456;2023-08-31T04:15:52;9.52;;;3.50;;
16870;SDS011;8552;48.120;-1.456;2023-08-31T04:18:18;12.98;;;3.67;;
16870;SDS011;8552;48.120;-1.456;2023-08-31T04:20:51;11.25;;;3.50;;
16870;SDS011;8552;48.120;-1.456;2023-08-31T04:23:18;7.90;;;3.33;;
16870;SDS011;8552;48.120;-1.456;2023-08-31T04:25:44;8.18;;;3.20;;
16870;SDS011;8552;48.120;-1.456;2023-08-31T04:28:13;8.27;;;3.45;;
16870;SDS011;8552;48.120;-1.456;2023-08-31T04:30:39;8.60;;;2.72;;
16870;SDS011;8552;48.120;-1.456;2023-08-31T04:33:06;10.52;;;3.10;;
16870;SDS011;8552;48.120;-1.456;2023-08-31T04:35:32;9.82;;;3.10;;
16870;SDS011;8552;48.120;-1.456;2023-08-31T04:37:58;8.50;;;3.25;;
16870;SDS011;8552;48.120;-1.456;2023-08-31T04:40:24;6.03;;;2.90;;
16870;SDS011;8552;48.120;-1.456;2023-08-31T04:42:50;7.22;;;2.83;;
16870;SDS011;8552;48.120;-1.456;2023-08-31T04:45:16;6.97;;;2.88;;
16870;SDS011;8552;48.120;-1.456;2023-08-31T04:47:42;7.40;;;3.13;;
16870;SDS011;8552;48.120;-1.456;2023-08-31T04:50:08;6.82;;;2.60;;
16870;SDS011;8552;48.120;-1.456;2023-08-31T04:52:34;9.85;;;3.20;;
16870;SDS011;8552;48.120;-1.456;2023-08-31T04:55:00;9.60;;;3.03;;
16870;SDS011;8552;48.120;-1.456;2023-08-31T04:57:28;10.63;;;3.35;;
16870;SDS011;8552;48.120;-1.456;2023-08-31T04:59:54;6.43;;;2.85;;
16870;SDS011;8552;48.120;-1.456;2023-08-31T05:02:20;12.60;;;3.38;;
16870;SDS011;8552;48.120;-1.456;2023-08-31T05:04:45;10.98;;;3.17;;
16870;SDS011;8552;48.120;-1.456;2023-08-31T05:07:11;9.77;;;3.00;;
16870;SDS011;8552;48.120;-1.456;2023-08-31T05:09:37;6.13;;;3.22;;
16870;SDS011;8552;48.120;-1.456;2023-08-31T05:12:03;10.10;;;4.03;;
16870;SDS011;8552;48.120;-1.456;2023-08-31T05:14:29;8.07;;;2.85;;
16870;SDS011;8552;48.120;-1.456;2023-08-31T05:16:55;10.18;;;3.08;;
16870;SDS011;8552;48.120;-1.456;2023-08-31T05:19:21;8.05;;;3.00;;
16870;SDS011;8552;48.120;-1.456;2023-08-31T05:21:46;8.80;;;3.50;;
16870;SDS011;8552;48.120;-1.456;2023-08-31T05:24:12;10.68;;;3.67;;
16870;SDS011;8552;48.120;-1.456;2023-08-31T05:26:39;7.57;;;2.92;;
16870;SDS011;8552;48.120;-1.456;2023-08-31T05:29:04;19.20;;;4.18;;
16870;SDS011;8552;48.120;-1.456;2023-08-31T05:31:30;7.70;;;3.25;;
16870;SDS011;8552;48.120;-1.456;2023-08-31T05:33:57;10.07;;;3.15;;
16870;SDS011;8552;48.120;-1.456;2023-08-31T05:36:26;8.30;;;3.97;;
16870;SDS011;8552;48.120;-1.456;2023-08-31T05:38:52;6.03;;;3.20;;
16870;SDS011;8552;48.120;-1.456;2023-08-31T05:41:18;9.43;;;3.95;;
16870;SDS011;8552;48.120;-1.456;2023-08-31T05:43:43;8.48;;;3.28;;
16870;SDS011;8552;48.120;-1.456;2023-08-31T05:46:10;9.52;;;3.72;;
16870;SDS011;8552;48.120;-1.456;2023-08-31T05:48:36;11.73;;;3.85;;
16870;SDS011;8552;48.120;-1.456;2023-08-31T05:51:02;8.10;;;3.25;;
16870;SDS011;8552;48.120;-1.456;2023-08-31T05:53:31;8.27;;;3.25;;
16870;SDS011;8552;48.120;-1.456;2023-08-31T05:56:03;9.73;;;4.13;;
16870;SDS011;8552;48.120;-1.456;2023-08-31T05:58:32;8.70;;;3.40;;
16870;SDS011;8552;48.120;-1.456;2023-08-31T06:01:00;12.68;;;4.80;;
16870;SDS011;8552;48.120;-1.456;2023-08-31T06:03:27;10.52;;;3.63;;
16870;SDS011;8552;48.120;-1.456;2023-08-31T06:05:54;8.20;;;3.38;;
16870;SDS011;8552;48.120;-1.456;2023-08-31T06:08:20;8.70;;;3.97;;
16870;SDS011;8552;48.120;-1.456;2023-08-31T06:10:46;12.02;;;4.25;;
16870;SDS011;8552;48.120;-1.456;2023-08-31T06:13:12;10.43;;;4.05;;
16870;SDS011;8552;48.120;-1.456;2023-08-31T06:15:38;9.77;;;3.58;;
16870;SDS011;8552;48.120;-1.456;2023-08-31T06:18:04;10.20;;;3.85;;
16870;SDS011;8552;48.120;-1.456;2023-08-31T06:20:30;18.52;;;3.95;;
16870;SDS011;8552;48.120;-1.456;2023-08-31T06:22:56;12.05;;;4.47;;
16870;SDS011;8552;48.120;-1.456;2023-08-31T06:25:22;10.00;;;3.70;;
16870;SDS011;8552;48.120;-1.456;2023-08-31T06:27:48;11.35;;;3.72;;
16870;SDS011;8552;48.120;-1.456;2023-08-31T06:30:13;11.30;;;3.70;;
16870;SDS011;8552;48.120;-1.456;2023-08-31T06:32:43;8.27;;;4.50;;
16870;SDS011;8552;48.120;-1.456;2023-08-31T06:35:09;10.40;;;4.18;;
16870;SDS011;8552;48.120;-1.456;2023-08-31T06:37:40;9.98;;;3.90;;
16870;SDS011;8552;48.120;-1.456;2023-08-31T06:40:07;7.90;;;3.83;;
16870;SDS011;8552;48.120;-1.456;2023-08-31T06:42:34;13.35;;;3.97;;
16870;SDS011;8552;48.120;-1.456;2023-08-31T06:45:03;9.18;;;3.78;;
16870;SDS011;8552;48.120;-1.456;2023-08-31T06:47:30;13.38;;;3.72;;
16870;SDS011;8552;48.120;-1.456;2023-08-31T06:49:56;9.98;;;3.72;;
16870;SDS011;8552;48.120;-1.456;2023-08-31T06:52:23;9.10;;;4.28;;
16870;SDS011;8552;48.120;-1.456;2023-08-31T06:54:49;12.07;;;4.15;;
16870;SDS011;8552;48.120;-1.456;2023-08-31T06:57:15;6.93;;;4.97;;
16870;SDS011;8552;48.120;-1.456;2023-08-31T06:59:40;7.30;;;3.90;;
16870;SDS011;8552;48.120;-1.456;2023-08-31T07:02:06;8.60;;;3.72;;
16870;SDS011;8552;48.120;-1.456;2023-08-31T07:04:32;10.65;;;3.97;;
16870;SDS011;8552;48.120;-1.456;2023-08-31T07:06:57;14.30;;;4.95;;
16870;SDS011;8552;48.120;-1.456;2023-08-31T07:09:23;10.93;;;4.70;;
16870;SDS011;8552;48.120;-1.456;2023-08-31T07:11:49;11.07;;;4.20;;
16870;SDS011;8552;48.120;-1.456;2023-08-31T07:14:14;8.85;;;4.05;;
16870;SDS011;8552;48.120;-1.456;2023-08-31T07:16:40;8.60;;;4.03;;
16870;SDS011;8552;48.120;-1.456;2023-08-31T07:19:05;10.00;;;4.15;;
16870;SDS011;8552;48.120;-1.456;2023-08-31T07:21:31;7.20;;;3.30;;
16870;SDS011;8552;48.120;-1.456;2023-08-31T07:23:57;6.97;;;4.68;;
16870;SDS011;8552;48.120;-1.456;2023-08-31T07:26:22;4.22;;;2.50;;
16870;SDS011;8552;48.120;-1.456;2023-08-31T07:28:48;7.50;;;3.15;;
16870;SDS011;8552;48.120;-1.456;2023-08-31T07:31:14;5.15;;;3.13;;
16870;SDS011;8552;48.120;-1.456;2023-08-31T07:33:41;5.40;;;2.47;;
16870;SDS011;8552;48.120;-1.456;2023-08-31T07:36:07;6.18;;;2.95;;
16870;SDS011;8552;48.120;-1.456;2023-08-31T07:38:33;5.65;;;3.22;;
16870;SDS011;8552;48.120;-1.456;2023-08-31T07:40:59;5.93;;;3.10;;
16870;SDS011;8552;48.120;-1.456;2023-08-31T07:43:25;4.10;;;2.70;;
16870;SDS011;8552;48.120;-1.456;2023-08-31T07:45:52;8.40;;;3.22;;
16870;SDS011;8552;48.120;-1.456;2023-08-31T07:48:18;4.13;;;3.13;;
16870;SDS011;8552;48.120;-1.456;2023-08-31T07:50:44;4.20;;;3.20;;
16870;SDS011;8552;48.120;-1.456;2023-08-31T07:53:10;10.70;;;3.15;;
16870;SDS011;8552;48.120;-1.456;2023-08-31T07:55:36;6.22;;;3.13;;
16870;SDS011;8552;48.120;-1.456;2023-08-31T07:58:02;5.35;;;2.95;;
16870;SDS011;8552;48.120;-1.456;2023-08-31T08:00:27;4.30;;;3.10;;
16870;SDS011;8552;48.120;-1.456;2023-08-31T08:02:53;4.15;;;3.25;;
16870;SDS011;8552;48.120;-1.456;2023-08-31T08:05:19;4.95;;;3.30;;
16870;SDS011;8552;48.120;-1.456;2023-08-31T08:07:44;6.80;;;3.38;;
16870;SDS011;8552;48.120;-1.456;2023-08-31T08:10:11;5.95;;;3.72;;
16870;SDS011;8552;48.120;-1.456;2023-08-31T08:12:41;3.72;;;3.15;;
16870;SDS011;8552;48.120;-1.456;2023-08-31T08:15:11;5.22;;;4.50;;
16870;SDS011;8552;48.120;-1.456;2023-08-31T08:17:37;6.90;;;4.05;;
16870;SDS011;8552;48.120;-1.456;2023-08-31T08:20:04;4.10;;;3.35;;
16870;SDS011;8552;48.120;-1.456;2023-08-31T08:22:31;5.32;;;4.00;;
16870;SDS011;8552;48.120;-1.456;2023-08-31T08:24:57;8.80;;;4.22;;
16870;SDS011;8552;48.120;-1.456;2023-08-31T08:27:23;6.13;;;4.03;;
16870;SDS011;8552;48.120;-1.456;2023-08-31T08:29:48;4.60;;;3.67;;
16870;SDS011;8552;48.120;-1.456;2023-08-31T08:32:14;6.03;;;4.53;;
16870;SDS011;8552;48.120;-1.456;2023-08-31T08:34:40;7.13;;;4.25;;
16870;SDS011;8552;48.120;-1.456;2023-08-31T08:37:06;4.70;;;3.70;;
16870;SDS011;8552;48.120;-1.456;2023-08-31T08:39:31;5.95;;;4.47;;
16870;SDS011;8552;48.120;-1.456;2023-08-31T08:41:58;6.22;;;4.68;;
16870;SDS011;8552;48.120;-1.456;2023-08-31T08:44:24;6.78;;;4.00;;
16870;SDS011;8552;48.120;-1.456;2023-08-31T08:46:51;5.50;;;4.30;;
16870;SDS011;8552;48.120;-1.456;2023-08-31T08:49:18;5.32;;;3.72;;
16870;SDS011;8552;48.120;-1.456;2023-08-31T08:51:44;5.07;;;4.05;;
16870;SDS011;8552;48.120;-1.456;2023-08-31T08:54:12;6.30;;;4.10;;
16870;SDS011;8552;48.120;-1.456;2023-08-31T08:56:38;5.68;;;4.75;;
16870;SDS011;8552;48.120;-1.456;2023-08-31T08:59:05;6.30;;;4.00;;
16870;SDS011;8552;48.120;-1.456;2023-08-31T09:01:31;6.57;;;4.28;;
16870;SDS011;8552;48.120;-1.456;2023-08-31T09:04:00;9.65;;;6.28;;
16870;SDS011;8552;48.120;-1.456;2023-08-31T09:06:27;5.68;;;4.72;;
16870;SDS011;8552;48.120;-1.456;2023-08-31T09:08:56;5.25;;;3.88;;
16870;SDS011;8552;48.120;-1.456;2023-08-31T09:11:22;5.55;;;3.20;;
16870;SDS011;8552;48.120;-1.456;2023-08-31T09:13:49;3.42;;;2.67;;
16870;SDS011;8552;48.120;-1.456;2023-08-31T09:16:25;4.10;;;2.72;;
16870;SDS011;8552;48.120;-1.456;2023-08-31T09:18:53;7.88;;;3.70;;
16870;SDS011;8552;48.120;-1.456;2023-08-31T09:21:22;3.35;;;3.05;;
16870;SDS011;8552;48.120;-1.456;2023-08-31T09:23:59;3.95;;;3.17;;
16870;SDS011;8552;48.120;-1.456;2023-08-31T09:26:25;6.10;;;3.42;;
16870;SDS011;8552;48.120;-1.456;2023-08-31T09:28:51;3.28;;;2.97;;
16870;SDS011;8552;48.120;-1.456;2023-08-31T09:31:17;7.28;;;2.90;;
16870;SDS011;8552;48.120;-1.456;2023-08-31T09:33:49;3.53;;;3.22;;
16870;SDS011;8552;48.120;-1.456;2023-08-31T09:36:16;3.75;;;3.10;;
16870;SDS011;8552;48.120;-1.456;2023-08-31T09:38:42;2.40;;;2.17;;
16870;SDS011;8552;48.120;-1.456;2023-08-31T09:41:09;4.72;;;2.55;;
16870;SDS011;8552;48.120;-1.456;2023-08-31T09:43:35;2.55;;;2.35;;
16870;SDS011;8552;48.120;-1.456;2023-08-31T09:46:02;2.72;;;2.47;;
16870;SDS011;8552;48.120;-1.456;2023-08-31T09:48:29;3.75;;;2.50;;
16870;SDS011;8552;48.120;-1.456;2023-08-31T09:50:56;5.10;;;3.22;;
16870;SDS011;8552;48.120;-1.456;2023-08-31T09:53:25;3.85;;;2.75;;
16870;SDS011;8552;48.120;-1.456;2023-08-31T09:55:54;2.90;;;2.60;;
16870;SDS011;8552;48.120;-1.456;2023-08-31T09:58:21;4.00;;;3.00;;
16870;SDS011;8552;48.120;-1.456;2023-08-31T10:00:51;3.47;;;2.78;;
16870;SDS011;8552;48.120;-1.456;2023-08-31T10:03:17;3.50;;;2.40;;
16870;SDS011;8552;48.120;-1.456;2023-08-31T10:05:45;3.28;;;2.97;;
16870;SDS011;8552;48.120;-1.456;2023-08-31T10:08:13;3.50;;;3.20;;
16870;SDS011;8552;48.120;-1.456;2023-08-31T10:10:40;4.15;;;3.55;;
16870;SDS011;8552;48.120;-1.456;2023-08-31T10:13:06;3.05;;;2.60;;
16870;SDS011;8552;48.120;-1.456;2023-08-31T10:15:33;2.90;;;2.60;;
16870;SDS011;8552;48.120;-1.456;2023-08-31T10:18:00;2.72;;;2.50;;
16870;SDS011;8552;48.120;-1.456;2023-08-31T10:20:27;3.10;;;2.80;;
16870;SDS011;8552;48.120;-1.456;2023-08-31T10:22:56;3.60;;;3.00;;
16870;SDS011;8552;48.120;-1.456;2023-08-31T10:28:19;3.40;;;2.83;;
16870;SDS011;8552;48.120;-1.456;2023-08-31T10:33:39;3.03;;;2.67;;
16870;SDS011;8552;48.120;-1.456;2023-08-31T10:36:13;3.45;;;3.15;;
16870;SDS011;8552;48.120;-1.456;2023-08-31T10:38:41;3.15;;;2.85;;
16870;SDS011;8552;48.120;-1.456;2023-08-31T10:43:45;2.35;;;2.10;;
16870;SDS011;8552;48.120;-1.456;2023-08-31T10:46:16;2.58;;;2.38;;
16870;SDS011;8552;48.120;-1.456;2023-08-31T10:48:54;3.42;;;2.10;;
16870;SDS011;8552;48.120;-1.456;2023-08-31T10:51:23;1.83;;;1.70;;
16870;SDS011;8552;48.120;-1.456;2023-08-31T10:53:50;3.00;;;2.03;;
16870;SDS011;8552;48.120;-1.456;2023-08-31T10:56:16;2.67;;;1.98;;
16870;SDS011;8552;48.120;-1.456;2023-08-31T10:58:43;2.10;;;1.90;;
16870;SDS011;8552;48.120;-1.456;2023-08-31T11:01:50;1.80;;;1.70;;
16870;SDS011;8552;48.120;-1.456;2023-08-31T11:12:40;1.90;;;1.50;;
16870;SDS011;8552;48.120;-1.456;2023-08-31T11:15:07;1.70;;;1.33;;
16870;SDS011;8552;48.120;-1.456;2023-08-31T11:17:36;1.73;;;1.25;;
16870;SDS011;8552;48.120;-1.456;2023-08-31T11:20:05;1.30;;;1.20;;
16870;SDS011;8552;48.120;-1.456;2023-08-31T11:22:31;2.53;;;1.42;;
16870;SDS011;8552;48.120;-1.456;2023-08-31T11:24:58;1.17;;;1.10;;
16870;SDS011;8552;48.120;-1.456;2023-08-31T11:27:24;0.80;;;0.80;;
16870;SDS011;8552;48.120;-1.456;2023-08-31T11:29:50;1.48;;;1.33;;
16870;SDS011;8552;48.120;-1.456;2023-08-31T11:32:16;0.82;;;0.82;;
16870;SDS011;8552;48.120;-1.456;2023-08-31T11:34:43;1.40;;;1.17;;
16870;SDS011;8552;48.120;-1.456;2023-08-31T11:37:10;2.03;;;1.17;;
16870;SDS011;8552;48.120;-1.456;2023-08-31T11:39:41;1.00;;;0.85;;
16870;SDS011;8552;48.120;-1.456;2023-08-31T11:42:13;0.90;;;0.60;;
16870;SDS011;8552;48.120;-1.456;2023-08-31T11:44:39;1.73;;;0.90;;
16870;SDS011;8552;48.120;-1.456;2023-08-31T11:47:05;1.63;;;0.90;;
16870;SDS011;8552;48.120;-1.456;2023-08-31T11:49:31;0.70;;;0.70;;
16870;SDS011;8552;48.120;-1.456;2023-08-31T11:51:57;0.70;;;0.70;;
16870;SDS011;8552;48.120;-1.456;2023-08-31T11:54:25;0.90;;;0.90;;
16870;SDS011;8552;48.120;-1.456;2023-08-31T11:56:51;1.38;;;0.88;;
16870;SDS011;8552;48.120;-1.456;2023-08-31T11:59:17;0.70;;;0.70;;
16870;SDS011;8552;48.120;-1.456;2023-08-31T12:01:45;0.85;;;0.85;;
16870;SDS011;8552;48.120;-1.456;2023-08-31T12:04:21;2.88;;;1.00;;
16870;SDS011;8552;48.120;-1.456;2023-08-31T12:06:49;1.42;;;1.00;;
16870;SDS011;8552;48.120;-1.456;2023-08-31T12:09:16;1.42;;;1.08;;
16870;SDS011;8552;48.120;-1.456;2023-08-31T12:11:42;1.55;;;1.35;;
16870;SDS011;8552;48.120;-1.456;2023-08-31T12:14:18;1.05;;;0.80;;
16870;SDS011;8552;48.120;-1.456;2023-08-31T12:16:48;0.90;;;0.90;;
16870;SDS011;8552;48.120;-1.456;2023-08-31T12:19:14;0.73;;;0.70;;
16870;SDS011;8552;48.120;-1.456;2023-08-31T12:21:44;0.73;;;0.73;;
16870;SDS011;8552;48.120;-1.456;2023-08-31T12:24:11;1.85;;;1.10;;
16870;SDS011;8552;48.120;-1.456;2023-08-31T12:26:37;0.80;;;0.80;;
16870;SDS011;8552;48.120;-1.456;2023-08-31T12:29:03;1.70;;;0.90;;
16870;SDS011;8552;48.120;-1.456;2023-08-31T12:31:32;2.67;;;1.00;;
16870;SDS011;8552;48.120;-1.456;2023-08-31T12:33:58;2.53;;;1.15;;
16870;SDS011;8552;48.120;-1.456;2023-08-31T12:36:25;2.28;;;1.00;;
16870;SDS011;8552;48.120;-1.456;2023-08-31T12:38:51;1.77;;;0.85;;
16870;SDS011;8552;48.120;-1.456;2023-08-31T12:41:17;2.13;;;1.30;;
16870;SDS011;8552;48.120;-1.456;2023-08-31T12:43:45;1.98;;;1.02;;
16870;SDS011;8552;48.120;-1.456;2023-08-31T12:46:10;0.98;;;0.95;;
16870;SDS011;8552;48.120;-1.456;2023-08-31T12:48:38;2.15;;;1.02;;
16870;SDS011;8552;48.120;-1.456;2023-08-31T12:51:04;0.90;;;0.90;;
16870;SDS011;8552;48.120;-1.456;2023-08-31T12:53:30;2.47;;;0.95;;
16870;SDS011;8552;48.120;-1.456;2023-08-31T12:55:56;0.90;;;0.90;;
16870;SDS011;8552;48.120;-1.456;2023-08-31T12:58:22;2.05;;;1.20;;
16870;SDS011;8552;48.120;-1.456;2023-08-31T13:00:48;3.00;;;0.80;;
16870;SDS011;8552;48.120;-1.456;2023-08-31T13:03:15;4.28;;;1.00;;
16870;SDS011;8552;48.120;-1.456;2023-08-31T13:05:41;1.90;;;0.75;;
16870;SDS011;8552;48.120;-1.456;2023-08-31T13:08:07;6.65;;;0.93;;
16870;SDS011;8552;48.120;-1.456;2023-08-31T13:10:34;1.55;;;0.70;;
16870;SDS011;8552;48.120;-1.456;2023-08-31T13:13:00;2.25;;;0.88;;
16870;SDS011;8552;48.120;-1.456;2023-08-31T13:15:26;1.67;;;0.93;;
16870;SDS011;8552;48.120;-1.456;2023-08-31T13:17:52;2.70;;;1.27;;
16870;SDS011;8552;48.120;-1.456;2023-08-31T13:20:18;4.03;;;0.68;;
16870;SDS011;8552;48.120;-1.456;2023-08-31T13:22:43;1.13;;;0.70;;
16870;SDS011;8552;48.120;-1.456;2023-08-31T13:25:09;1.02;;;0.75;;
16870;SDS011;8552;48.120;-1.456;2023-08-31T13:27:36;1.85;;;0.80;;
16870;SDS011;8552;48.120;-1.456;2023-08-31T13:30:02;3.47;;;1.00;;
16870;SDS011;8552;48.120;-1.456;2023-08-31T13:32:34;1.30;;;0.75;;
16870;SDS011;8552;48.120;-1.456;2023-08-31T13:35:00;1.80;;;1.00;;
16870;SDS011;8552;48.120;-1.456;2023-08-31T13:37:26;4.82;;;1.27;;
16870;SDS011;8552;48.120;-1.456;2023-08-31T13:39:51;2.35;;;1.38;;
16870;SDS011;8552;48.120;-1.456;2023-08-31T13:42:20;4.32;;;1.25;;
16870;SDS011;8552;48.120;-1.456;2023-08-31T13:44:46;1.83;;;1.20;;
16870;SDS011;8552;48.120;-1.456;2023-08-31T13:47:11;2.22;;;0.80;;
16870;SDS011;8552;48.120;-1.456;2023-08-31T13:49:37;1.80;;;0.75;;
16870;SDS011;8552;48.120;-1.456;2023-08-31T13:52:03;1.48;;;1.10;;
16870;SDS011;8552;48.120;-1.456;2023-08-31T13:54:30;1.38;;;0.77;;
16870;SDS011;8552;48.120;-1.456;2023-08-31T13:56:58;3.20;;;1.42;;
16870;SDS011;8552;48.120;-1.456;2023-08-31T13:59:24;0.65;;;0.60;;
16870;SDS011;8552;48.120;-1.456;2023-08-31T14:01:52;1.65;;;0.57;;
16870;SDS011;8552;48.120;-1.456;2023-08-31T14:04:18;0.82;;;0.70;;
16870;SDS011;8552;48.120;-1.456;2023-08-31T14:06:44;1.58;;;0.80;;
16870;SDS011;8552;48.120;-1.456;2023-08-31T14:09:10;1.70;;;0.65;;
16870;SDS011;8552;48.120;-1.456;2023-08-31T14:11:36;0.98;;;0.60;;
16870;SDS011;8552;48.120;-1.456;2023-08-31T14:14:05;2.00;;;0.70;;
16870;SDS011;8552;48.120;-1.456;2023-08-31T14:16:34;1.70;;;0.70;;
16870;SDS011;8552;48.120;-1.456;2023-08-31T14:19:02;1.13;;;0.82;;
16870;SDS011;8552;48.120;-1.456;2023-08-31T14:21:28;2.30;;;0.63;;
16870;SDS011;8552;48.120;-1.456;2023-08-31T14:23:54;1.58;;;0.68;;
16870;SDS011;8552;48.120;-1.456;2023-08-31T14:26:21;1.60;;;0.70;;
16870;SDS011;8552;48.120;-1.456;2023-08-31T14:28:53;1.08;;;0.45;;
16870;SDS011;8552;48.120;-1.456;2023-08-31T14:31:19;1.20;;;0.38;;
16870;SDS011;8552;48.120;-1.456;2023-08-31T14:33:45;1.67;;;0.32;;
16870;SDS011;8552;48.120;-1.456;2023-08-31T14:36:12;1.90;;;0.70;;
16870;SDS011;8552;48.120;-1.456;2023-08-31T14:38:39;0.52;;;0.50;;
16870;SDS011;8552;48.120;-1.456;2023-08-31T14:41:05;1.75;;;0.55;;
16870;SDS011;8552;48.120;-1.456;2023-08-31T14:43:31;1.83;;;0.60;;
16870;SDS011;8552;48.120;-1.456;2023-08-31T14:46:00;2.00;;;0.60;;
16870;SDS011;8552;48.120;-1.456;2023-08-31T14:48:29;0.65;;;0.40;;
16870;SDS011;8552;48.120;-1.456;2023-08-31T14:50:57;0.20;;;0.20;;
16870;SDS011;8552;48.120;-1.456;2023-08-31T14:53:26;0.80;;;0.40;;
16870;SDS011;8552;48.120;-1.456;2023-08-31T14:55:52;0.98;;;0.47;;
16870;SDS011;8552;48.120;-1.456;2023-08-31T14:58:18;0.63;;;0.40;;
16870;SDS011;8552;48.120;-1.456;2023-08-31T15:00:44;3.95;;;1.92;;
16870;SDS011;8552;48.120;-1.456;2023-08-31T15:03:10;1.25;;;0.50;;
16870;SDS011;8552;48.120;-1.456;2023-08-31T15:05:36;1.52;;;0.38;;
16870;SDS011;8552;48.120;-1.456;2023-08-31T15:08:05;0.70;;;0.38;;
16870;SDS011;8552;48.120;-1.456;2023-08-31T15:10:31;2.47;;;0.40;;
16870;SDS011;8552;48.120;-1.456;2023-08-31T15:12:57;0.43;;;0.30;;